Time;durP1;ratioP1;P1;durP2;ratioP2;P2;SDS_P1;SDS_P2;PMS_P1;PMS_P2;Temp;Humidity;BMP_temperature;BMP_pressure;BME280_temperature;BME280_humidity;BME280_pressure;Samples;Min_cycle;Max_cycle;Signal;HPM_P1;HPM_P2
2021/08/17 00:00:58;;;;;;;8.40;2.50;;;13.80;99.90;;;;;;5022040;28;20212;-44
2021/08/17 00:03:24;;;;;;;8.80;2.07;;;13.80;99.90;;;;;;5025251;28;20196;-43
2021/08/17 00:05:52;;;;;;;7.33;1.60;;;13.80;99.90;;;;;;5005883;28;20867;-43
2021/08/17 00:08:19;;;;;;;10.87;1.80;;;13.80;99.90;;;;;;5025065;28;20203;-44
2021/08/17 00:10:45;;;;;;;7.87;1.77;;;13.80;99.90;;;;;;5015559;28;20215;-47
2021/08/17 00:13:12;;;;;;;13.60;2.30;;;13.80;99.90;;;;;;5005477;28;20200;-44
2021/08/17 00:15:40;;;;;;;8.10;1.90;;;13.80;99.90;;;;;;5003041;28;20200;-45
2021/08/17 00:18:07;;;;;;;11.17;1.50;;;13.80;99.90;;;;;;5004755;28;20220;-45
2021/08/17 00:20:33;;;;;;;9.37;1.50;;;13.80;99.90;;;;;;4997396;28;20580;-46
2021/08/17 00:23:00;;;;;;;5.27;1.57;;;13.80;99.90;;;;;;5023028;28;20195;-47
2021/08/17 00:25:27;;;;;;;9.50;2.33;;;13.80;99.90;;;;;;5025610;28;20207;-44
2021/08/17 00:27:53;;;;;;;7.20;1.97;;;13.80;99.90;;;;;;5016976;28;20192;-45
2021/08/17 00:30:20;;;;;;;10.50;1.90;;;13.80;99.90;;;;;;5024525;28;20215;-45
2021/08/17 00:32:48;;;;;;;6.33;1.40;;;13.80;99.90;;;;;;5020887;28;20871;-44
2021/08/17 00:35:14;;;;;;;9.60;1.90;;;13.80;99.90;;;;;;5024957;28;20206;-45
2021/08/17 00:37:41;;;;;;;6.80;2.00;;;13.80;99.90;;;;;;5006225;28;20224;-47
2021/08/17 00:40:09;;;;;;;10.53;1.80;;;13.80;99.90;;;;;;5023562;28;20315;-43
2021/08/17 00:42:40;;;;;;;9.97;1.50;;;13.90;99.90;;;;;;5017695;28;20208;-48
2021/08/17 00:45:07;;;;;;;8.13;2.00;;;13.90;99.90;;;;;;5023476;28;20247;-45
2021/08/17 00:47:34;;;;;;;14.07;1.80;;;13.90;99.90;;;;;;5022733;28;20191;-45
2021/08/17 00:50:02;;;;;;;7.90;1.77;;;13.90;99.90;;;;;;5020523;28;20908;-46
2021/08/17 00:52:29;;;;;;;8.80;2.20;;;13.90;99.90;;;;;;5007260;28;20219;-48
2021/08/17 00:54:55;;;;;;;7.43;1.70;;;13.90;99.90;;;;;;5020689;28;20904;-44
2021/08/17 00:57:23;;;;;;;6.03;1.80;;;13.90;99.90;;;;;;5026306;28;20326;-49
2021/08/17 00:59:49;;;;;;;6.43;2.30;;;13.90;99.90;;;;;;5018965;28;20810;-45
2021/08/17 01:02:16;;;;;;;6.77;2.17;;;13.90;99.90;;;;;;5027180;28;20208;-44
2021/08/17 01:04:42;;;;;;;8.60;1.87;;;13.90;99.90;;;;;;5023606;28;20207;-43
2021/08/17 01:07:11;;;;;;;9.73;1.80;;;13.80;99.90;;;;;;5012175;28;20204;-46
2021/08/17 01:09:38;;;;;;;7.13;1.60;;;13.80;99.90;;;;;;5024343;28;20227;-46
2021/08/17 01:12:05;;;;;;;5.90;1.57;;;13.80;99.90;;;;;;5024851;28;20188;-44
2021/08/17 01:14:32;;;;;;;6.73;1.60;;;13.80;99.90;;;;;;5018372;28;20262;-48
2021/08/17 01:16:59;;;;;;;4.83;1.73;;;13.80;99.90;;;;;;5021300;28;20215;-44
2021/08/17 01:19:26;;;;;;;10.73;1.70;;;13.80;99.90;;;;;;5023673;28;20204;-46
2021/08/17 01:21:53;;;;;;;9.70;1.60;;;13.80;99.90;;;;;;5020328;28;20949;-48
2021/08/17 01:24:21;;;;;;;10.97;1.70;;;13.80;99.90;;;;;;5011588;28;20724;-48
2021/08/17 01:26:49;;;;;;;9.37;1.63;;;13.80;99.90;;;;;;5023288;28;20184;-49
2021/08/17 01:29:17;;;;;;;9.47;1.40;;;13.90;99.90;;;;;;5027300;28;20227;-49
2021/08/17 01:31:45;;;;;;;9.10;1.60;;;13.90;99.90;;;;;;5016589;28;20208;-50
2021/08/17 01:34:11;;;;;;;11.80;2.43;;;13.90;99.90;;;;;;5024219;28;20559;-45
2021/08/17 01:36:38;;;;;;;10.07;2.73;;;14.00;99.90;;;;;;5021278;28;20200;-45
2021/08/17 01:39:05;;;;;;;8.83;2.00;;;14.00;99.90;;;;;;5009873;28;20220;-46
2021/08/17 01:41:32;;;;;;;10.17;1.60;;;14.00;99.90;;;;;;5022451;28;20211;-46
2021/08/17 01:44:03;;;;;;;8.93;1.87;;;14.00;99.90;;;;;;5031769;28;20199;-46
2021/08/17 01:46:30;;;;;;;11.73;2.27;;;14.10;99.90;;;;;;5024929;28;20208;-46
2021/08/17 01:48:56;;;;;;;12.37;2.30;;;14.10;99.90;;;;;;5021386;28;20192;-46
2021/08/17 01:51:23;;;;;;;5.50;1.80;;;14.10;99.90;;;;;;5024218;28;20226;-43
2021/08/17 01:53:50;;;;;;;10.60;1.83;;;14.10;99.90;;;;;;5018898;28;20199;-45
2021/08/17 01:56:17;;;;;;;10.53;1.80;;;14.10;99.90;;;;;;5000655;28;20214;-44
2021/08/17 01:58:44;;;;;;;6.90;1.47;;;14.10;99.90;;;;;;5019633;28;20212;-44
2021/08/17 02:01:13;;;;;;;6.50;1.73;;;14.10;99.90;;;;;;5021234;28;20206;-46
2021/08/17 02:03:40;;;;;;;9.47;2.17;;;14.10;99.90;;;;;;5022069;28;20657;-43
2021/08/17 02:06:08;;;;;;;8.33;1.97;;;14.10;99.90;;;;;;5023273;28;20192;-48
2021/08/17 02:08:35;;;;;;;7.07;1.67;;;14.10;99.90;;;;;;5021762;28;20203;-45
2021/08/17 02:11:01;;;;;;;5.60;2.03;;;14.10;99.90;;;;;;5006867;28;20223;-44
2021/08/17 02:13:29;;;;;;;10.27;2.03;;;14.20;99.90;;;;;;5022878;28;20199;-44
2021/08/17 02:15:56;;;;;;;11.97;1.90;;;14.20;99.90;;;;;;5020076;28;20203;-45
2021/08/17 02:18:25;;;;;;;9.73;1.73;;;14.20;99.90;;;;;;5027371;28;20219;-45
2021/08/17 02:20:51;;;;;;;7.10;1.73;;;14.20;99.90;;;;;;5022873;28;20297;-45
2021/08/17 02:23:18;;;;;;;8.43;1.60;;;14.10;99.90;;;;;;5027068;28;20191;-45
2021/08/17 02:25:45;;;;;;;6.80;1.83;;;14.10;99.90;;;;;;5008855;28;20192;-46
2021/08/17 02:28:11;;;;;;;10.77;1.53;;;14.10;99.90;;;;;;5019365;28;20809;-45
2021/08/17 02:30:38;;;;;;;8.53;1.60;;;14.10;99.90;;;;;;5022387;28;20215;-51
2021/08/17 02:33:04;;;;;;;5.80;1.37;;;14.10;99.90;;;;;;5023086;28;20203;-44
2021/08/17 02:35:32;;;;;;;5.40;1.37;;;14.10;99.90;;;;;;5026426;28;20211;-49
2021/08/17 02:37:59;;;;;;;7.37;1.70;;;14.10;99.90;;;;;;5024740;28;20505;-47
2021/08/17 02:40:25;;;;;;;8.27;1.57;;;14.10;99.90;;;;;;5027867;28;20232;-44
2021/08/17 02:42:52;;;;;;;9.67;1.40;;;14.10;99.90;;;;;;4989882;28;20842;-46
2021/08/17 02:45:18;;;;;;;11.83;1.70;;;14.10;99.90;;;;;;5026564;28;20204;-45
2021/08/17 02:47:45;;;;;;;9.07;1.73;;;14.10;99.90;;;;;;5017981;28;20215;-44
2021/08/17 02:50:12;;;;;;;5.43;1.13;;;14.10;99.90;;;;;;5025509;28;20216;-46
2021/08/17 02:52:40;;;;;;;9.87;1.90;;;14.00;99.90;;;;;;5023955;28;20211;-49
2021/08/17 02:55:08;;;;;;;10.53;1.70;;;14.00;99.90;;;;;;5025936;28;20653;-45
2021/08/17 02:57:34;;;;;;;8.97;1.53;;;14.00;99.90;;;;;;5002737;28;20307;-45
2021/08/17 03:00:01;;;;;;;8.90;1.93;;;14.00;99.90;;;;;;5023757;28;20802;-50
2021/08/17 03:02:28;;;;;;;8.57;2.20;;;14.00;99.90;;;;;;5021892;28;20215;-44
2021/08/17 03:04:54;;;;;;;5.43;1.50;;;14.00;99.90;;;;;;5022919;28;20223;-45
2021/08/17 03:07:21;;;;;;;11.50;1.57;;;14.00;99.90;;;;;;5027407;28;20196;-44
2021/08/17 03:09:48;;;;;;;8.37;1.70;;;14.00;99.90;;;;;;5021698;28;20215;-43
2021/08/17 03:12:15;;;;;;;5.03;1.37;;;14.00;99.90;;;;;;5026456;28;20667;-43
2021/08/17 03:14:42;;;;;;;7.27;2.40;;;14.00;99.90;;;;;;4999894;28;20208;-51
2021/08/17 03:17:08;;;;;;;7.13;1.60;;;13.90;99.90;;;;;;5021212;28;20202;-45
2021/08/17 03:19:35;;;;;;;3.53;1.37;;;13.90;99.90;;;;;;5024405;28;20215;-45
2021/08/17 03:22:01;;;;;;;5.20;1.20;;;13.90;99.90;;;;;;5023707;28;20188;-44
2021/08/17 03:24:28;;;;;;;7.03;1.70;;;13.90;99.90;;;;;;5025640;28;20192;-45
2021/08/17 03:26:56;;;;;;;4.13;1.40;;;13.90;99.90;;;;;;5022557;28;20188;-46
2021/08/17 03:29:22;;;;;;;8.23;2.33;;;13.80;99.90;;;;;;5009971;28;20220;-47
2021/08/17 03:31:49;;;;;;;6.37;1.50;;;13.80;99.90;;;;;;5021525;28;20199;-46
2021/08/17 03:34:16;;;;;;;6.67;1.40;;;13.80;99.90;;;;;;5021919;28;20204;-46
2021/08/17 03:36:42;;;;;;;6.17;1.60;;;13.80;99.90;;;;;;5022628;28;20192;-46
2021/08/17 03:39:09;;;;;;;3.07;1.60;;;13.70;99.90;;;;;;5025332;28;20231;-44
2021/08/17 03:41:36;;;;;;;7.67;1.80;;;13.70;99.90;;;;;;5023382;28;20204;-45
2021/08/17 03:44:04;;;;;;;5.20;1.30;;;13.70;99.90;;;;;;5006034;28;21159;-45
2021/08/17 03:46:31;;;;;;;4.43;1.20;;;13.70;99.90;;;;;;5020509;28;20203;-44
2021/08/17 03:48:57;;;;;;;10.63;1.30;;;13.70;99.90;;;;;;5019129;28;20881;-44
2021/08/17 03:51:24;;;;;;;6.80;1.67;;;13.70;99.90;;;;;;5028486;28;20200;-45
2021/08/17 03:53:51;;;;;;;5.67;1.60;;;13.70;99.90;;;;;;5022247;28;20203;-45
2021/08/17 03:56:17;;;;;;;4.87;1.50;;;13.70;99.90;;;;;;5026042;28;20680;-45
2021/08/17 03:58:44;;;;;;;9.00;1.77;;;13.70;99.90;;;;;;5022109;28;20216;-47
2021/08/17 04:01:14;;;;;;;9.10;2.00;;;13.70;99.90;;;;;;5002827;28;20220;-47
2021/08/17 04:03:40;;;;;;;7.87;1.70;;;13.70;99.90;;;;;;5019549;28;20677;-46
2021/08/17 04:06:07;;;;;;;5.40;1.43;;;13.70;99.90;;;;;;5023116;28;20212;-44
2021/08/17 04:08:35;;;;;;;7.97;1.50;;;13.70;99.90;;;;;;5023622;28;20193;-48
2021/08/17 04:11:02;;;;;;;5.00;1.50;;;13.70;99.90;;;;;;5022660;28;20207;-44
2021/08/17 04:13:28;;;;;;;5.47;1.57;;;13.70;99.90;;;;;;5025760;28;20241;-44
2021/08/17 04:15:55;;;;;;;5.57;1.87;;;13.70;99.90;;;;;;5008240;28;20444;-45
2021/08/17 04:18:23;;;;;;;7.90;2.40;;;13.80;99.90;;;;;;5021698;28;20648;-44
2021/08/17 04:20:49;;;;;;;5.10;1.93;;;13.80;99.90;;;;;;5016724;28;21060;-42
2021/08/17 04:23:17;;;;;;;6.70;1.80;;;13.70;99.90;;;;;;5024695;28;20208;-43
2021/08/17 04:25:43;;;;;;;8.73;2.40;;;13.70;99.90;;;;;;5021208;28;20202;-46
2021/08/17 04:28:10;;;;;;;7.47;1.80;;;13.70;99.90;;;;;;5024597;28;20192;-43
2021/08/17 04:30:37;;;;;;;4.63;1.53;;;13.70;99.90;;;;;;5013583;28;20223;-45
2021/08/17 04:33:03;;;;;;;5.03;1.37;;;13.70;99.90;;;;;;5009574;28;20254;-43
2021/08/17 04:35:31;;;;;;;3.80;1.37;;;13.70;99.90;;;;;;5024026;28;20539;-47
2021/08/17 04:37:58;;;;;;;7.33;1.93;;;13.80;99.90;;;;;;5016932;28;20208;-45
2021/08/17 04:40:24;;;;;;;4.90;1.77;;;13.80;99.90;;;;;;5024024;28;20228;-43
2021/08/17 04:42:51;;;;;;;5.87;2.03;;;13.80;99.90;;;;;;5020385;28;20821;-48
2021/08/17 04:45:18;;;;;;;6.70;1.80;;;13.80;99.90;;;;;;5024476;28;20200;-43
2021/08/17 04:47:46;;;;;;;6.67;2.23;;;13.90;99.90;;;;;;5004592;28;20295;-47
2021/08/17 04:50:13;;;;;;;5.10;2.03;;;13.90;99.90;;;;;;5022485;28;20227;-44
2021/08/17 04:52:42;;;;;;;6.33;2.60;;;13.90;99.90;;;;;;5016570;28;20204;-48
2021/08/17 04:55:10;;;;;;;4.33;2.17;;;14.00;99.90;;;;;;5023803;28;20188;-44
2021/08/17 04:57:48;;;;;;;9.00;2.07;;;14.00;99.90;;;;;;5022058;28;20196;-47
2021/08/17 05:00:16;;;;;;;10.97;2.50;;;14.10;99.90;;;;;;5024002;28;20905;-45
2021/08/17 05:02:42;;;;;;;8.67;2.40;;;14.10;99.90;;;;;;5007954;28;20199;-50
2021/08/17 05:05:10;;;;;;;9.40;2.97;;;14.10;99.90;;;;;;5021634;28;20199;-46
2021/08/17 05:07:37;;;;;;;9.80;2.10;;;14.10;99.90;;;;;;5019031;28;20211;-47
2021/08/17 05:10:06;;;;;;;6.87;2.57;;;14.10;99.90;;;;;;5022780;28;20371;-46
2021/08/17 05:12:32;;;;;;;13.20;3.10;;;14.10;99.90;;;;;;5023395;28;20670;-46
2021/08/17 05:14:59;;;;;;;14.70;2.60;;;14.20;99.90;;;;;;5021869;28;20184;-44
2021/08/17 05:17:25;;;;;;;15.77;3.10;;;14.20;99.90;;;;;;5024232;28;20192;-44
2021/08/17 05:19:52;;;;;;;10.60;2.93;;;14.30;99.90;;;;;;5003706;28;20228;-44
2021/08/17 05:22:18;;;;;;;14.90;3.63;;;14.40;99.90;;;;;;5023675;28;20211;-45
2021/08/17 05:24:45;;;;;;;13.90;3.60;;;14.50;99.90;;;;;;5015832;28;20212;-46
2021/08/17 05:27:13;;;;;;;15.43;3.70;;;14.50;99.90;;;;;;5025952;28;20192;-47
2021/08/17 05:29:40;;;;;;;8.37;3.07;;;14.50;99.90;;;;;;5023503;28;20219;-44
2021/08/17 05:32:07;;;;;;;10.27;3.40;;;14.50;99.90;;;;;;5023399;28;20685;-46
2021/08/17 05:34:34;;;;;;;11.10;3.60;;;14.50;99.90;;;;;;5006828;28;20219;-45
2021/08/17 05:37:01;;;;;;;9.83;3.40;;;14.50;99.90;;;;;;5021626;28;20184;-44
2021/08/17 05:39:28;;;;;;;15.27;3.57;;;14.50;99.90;;;;;;5018850;28;20235;-44
2021/08/17 05:41:54;;;;;;;13.27;3.67;;;14.50;99.90;;;;;;5020629;28;20944;-45
2021/08/17 05:44:22;;;;;;;14.27;3.67;;;14.50;99.90;;;;;;5022690;28;20215;-44
2021/08/17 05:46:49;;;;;;;10.70;2.80;;;14.50;99.90;;;;;;5019160;28;20286;-44
2021/08/17 05:49:16;;;;;;;13.07;3.40;;;14.50;99.90;;;;;;5022405;28;20208;-49
2021/08/17 05:51:42;;;;;;;12.37;3.20;;;14.50;99.90;;;;;;5000941;28;20207;-47
2021/08/17 05:54:09;;;;;;;13.73;3.73;;;14.50;99.90;;;;;;5022944;28;20239;-48
2021/08/17 05:56:35;;;;;;;15.43;4.20;;;14.50;99.90;;;;;;5016908;28;20207;-50
2021/08/17 05:59:02;;;;;;;13.93;4.03;;;14.60;99.90;;;;;;5003402;28;20937;-45
2021/08/17 06:01:30;;;;;;;16.03;3.73;;;14.60;99.90;;;;;;5022866;28;20195;-50
2021/08/17 06:03:57;;;;;;;14.40;3.97;;;14.60;99.90;;;;;;5020198;28;20196;-43
2021/08/17 06:06:23;;;;;;;22.30;5.80;;;14.60;99.90;;;;;;5007774;28;20207;-44
2021/08/17 06:08:51;;;;;;;9.67;4.03;;;14.60;99.90;;;;;;5018655;28;20834;-43
2021/08/17 06:11:18;;;;;;;16.10;3.63;;;14.70;99.90;;;;;;5018595;28;20211;-44
2021/08/17 06:13:44;;;;;;;11.80;3.93;;;14.70;99.90;;;;;;5021236;28;20682;-45
2021/08/17 06:16:11;;;;;;;12.43;4.27;;;14.80;99.90;;;;;;5024746;28;20210;-45
2021/08/17 06:18:39;;;;;;;9.63;3.40;;;14.80;99.90;;;;;;5021238;28;20211;-50
2021/08/17 06:21:05;;;;;;;18.67;3.90;;;14.90;99.90;;;;;;5003325;28;20235;-49
2021/08/17 06:23:32;;;;;;;12.67;3.63;;;14.90;99.90;;;;;;5018144;28;20570;-45
2021/08/17 06:25:58;;;;;;;14.27;3.40;;;14.90;99.90;;;;;;5016150;28;20212;-45
2021/08/17 06:28:27;;;;;;;9.87;3.60;;;15.00;99.90;;;;;;5023618;28;20199;-45
2021/08/17 06:30:54;;;;;;;27.57;4.93;;;15.00;99.90;;;;;;5020028;28;20200;-48
2021/08/17 06:33:20;;;;;;;16.30;3.73;;;15.10;99.90;;;;;;5026355;28;20286;-49
2021/08/17 06:35:48;;;;;;;15.13;3.50;;;15.20;99.90;;;;;;5020980;28;20889;-45
2021/08/17 06:38:15;;;;;;;13.17;3.67;;;15.30;99.90;;;;;;5007770;28;20204;-44
2021/08/17 06:40:42;;;;;;;12.07;3.53;;;15.40;99.90;;;;;;5019715;28;20223;-45
2021/08/17 06:43:08;;;;;;;9.20;3.53;;;15.40;99.90;;;;;;5017907;28;20720;-45
2021/08/17 06:45:35;;;;;;;14.00;3.87;;;15.50;99.90;;;;;;5021417;28;20192;-44
2021/08/17 06:48:01;;;;;;;10.43;3.20;;;15.50;99.90;;;;;;5020160;28;20188;-45
2021/08/17 06:50:28;;;;;;;6.07;2.67;;;15.50;99.90;;;;;;5022236;28;20223;-47
2021/08/17 06:52:56;;;;;;;10.70;2.57;;;15.50;99.90;;;;;;4997235;28;20208;-47
2021/08/17 06:55:23;;;;;;;7.67;2.73;;;15.50;99.90;;;;;;5023967;28;20658;-46
2021/08/17 06:57:49;;;;;;;8.80;2.47;;;15.50;99.90;;;;;;5017981;28;20192;-44
2021/08/17 07:00:17;;;;;;;7.17;2.77;;;15.50;99.90;;;;;;5026491;28;20713;-45
2021/08/17 07:02:43;;;;;;;11.80;2.90;;;15.50;99.90;;;;;;5023437;28;20654;-45
2021/08/17 07:05:11;;;;;;;8.77;2.87;;;15.50;99.90;;;;;;5026362;28;20197;-46
2021/08/17 07:07:37;;;;;;;11.57;2.83;;;15.50;99.90;;;;;;5001968;28;20204;-50
2021/08/17 07:10:07;;;;;;;7.97;2.27;;;15.50;99.90;;;;;;5024148;28;20200;-44
2021/08/17 07:12:33;;;;;;;13.10;3.50;;;15.50;99.90;;;;;;5020326;28;20200;-50
2021/08/17 07:15:00;;;;;;;8.53;2.40;;;15.60;99.90;;;;;;5023858;28;20295;-43
2021/08/17 07:17:27;;;;;;;12.27;2.87;;;15.60;99.90;;;;;;5026061;28;20207;-46
2021/08/17 07:19:53;;;;;;;9.80;2.87;;;15.60;99.90;;;;;;5021890;28;20295;-45
2021/08/17 07:22:20;;;;;;;11.27;2.60;;;15.70;99.90;;;;;;5025769;28;20204;-45
2021/08/17 07:24:46;;;;;;;12.10;3.20;;;15.70;99.90;;;;;;5000413;28;20479;-43
2021/08/17 07:27:14;;;;;;;5.53;2.50;;;15.80;99.90;;;;;;5028938;28;20204;-44
2021/08/17 07:29:41;;;;;;;11.03;3.07;;;15.90;99.90;;;;;;5020231;28;20736;-44
2021/08/17 07:32:08;;;;;;;6.73;2.67;;;16.00;99.90;;;;;;5025311;28;20196;-44
2021/08/17 07:34:34;;;;;;;3.93;2.07;;;16.20;99.90;;;;;;5024313;28;20204;-45
2021/08/17 07:37:01;;;;;;;10.40;2.57;;;16.20;99.90;;;;;;5023628;28;20943;-47
2021/08/17 07:39:28;;;;;;;9.70;2.57;;;16.20;99.90;;;;;;5009707;28;20234;-45
2021/08/17 07:41:55;;;;;;;10.70;2.50;;;16.30;99.90;;;;;;5022184;28;21001;-45
2021/08/17 07:44:23;;;;;;;9.50;2.47;;;16.30;99.90;;;;;;5021604;28;20221;-48
2021/08/17 07:46:50;;;;;;;6.20;2.27;;;16.20;99.90;;;;;;5022073;28;20212;-45
2021/08/17 07:49:16;;;;;;;9.37;2.87;;;16.30;99.90;;;;;;5025201;28;20219;-44
2021/08/17 07:51:43;;;;;;;6.97;2.20;;;16.30;99.90;;;;;;5022274;28;20614;-44
2021/08/17 07:54:09;;;;;;;9.07;2.43;;;16.30;99.90;;;;;;5025375;28;20200;-46
2021/08/17 07:56:36;;;;;;;3.93;1.40;;;16.20;99.90;;;;;;5000940;28;20572;-47
2021/08/17 07:59:04;;;;;;;6.50;1.73;;;16.20;99.90;;;;;;5010985;28;20231;-44
2021/08/17 08:01:32;;;;;;;5.80;1.83;;;16.20;99.90;;;;;;5025307;28;20712;-45
2021/08/17 08:04:00;;;;;;;6.87;2.30;;;16.20;99.90;;;;;;5023211;28;20180;-47
2021/08/17 08:06:26;;;;;;;4.23;1.70;;;16.30;99.90;;;;;;5025407;28;20682;-43
2021/08/17 08:08:53;;;;;;;7.03;2.03;;;16.30;99.90;;;;;;5023406;28;20188;-46
2021/08/17 08:11:20;;;;;;;3.03;1.50;;;16.40;99.90;;;;;;5005500;28;20227;-47
2021/08/17 08:13:46;;;;;;;6.20;1.70;;;16.30;99.90;;;;;;5023441;28;20192;-45
2021/08/17 08:16:13;;;;;;;6.10;1.93;;;16.30;99.90;;;;;;5022878;28;20204;-45
2021/08/17 08:18:41;;;;;;;6.30;2.23;;;16.30;99.90;;;;;;5023205;28;20196;-44
2021/08/17 08:21:08;;;;;;;5.40;1.90;;;16.30;99.90;;;;;;5024083;28;20556;-46
2021/08/17 08:23:36;;;;;;;4.50;1.90;;;16.20;99.90;;;;;;5023182;28;20207;-44
2021/08/17 08:26:03;;;;;;;3.47;1.63;;;16.10;99.90;;;;;;5000342;28;20270;-46
2021/08/17 08:28:29;;;;;;;4.00;1.30;;;16.00;99.90;;;;;;5024090;28;20637;-48
2021/08/17 08:30:56;;;;;;;8.83;2.57;;;15.80;99.90;;;;;;5016981;28;20219;-47
2021/08/17 08:33:23;;;;;;;7.20;1.73;;;15.70;99.90;;;;;;5024631;28;20661;-45
2021/08/17 08:35:51;;;;;;;5.47;1.90;;;15.60;99.90;;;;;;5022316;28;20188;-46
2021/08/17 08:38:17;;;;;;;6.10;1.50;;;15.60;99.90;;;;;;5027384;28;20665;-45
2021/08/17 08:40:46;;;;;;;6.13;1.83;;;15.60;99.90;;;;;;5009996;28;20291;-43
2021/08/17 08:43:13;;;;;;;5.13;1.57;;;15.50;99.90;;;;;;5027351;28;20203;-45
2021/08/17 08:45:40;;;;;;;7.47;1.70;;;15.40;99.90;;;;;;5020159;28;20196;-46
2021/08/17 08:48:07;;;;;;;6.50;1.80;;;15.50;99.90;;;;;;5020828;28;20283;-44
2021/08/17 08:50:34;;;;;;;4.40;1.40;;;15.40;99.90;;;;;;5022792;28;20231;-46
2021/08/17 08:53:02;;;;;;;4.23;1.93;;;15.50;99.90;;;;;;5022528;28;20188;-48
2021/08/17 08:55:29;;;;;;;4.83;1.53;;;15.50;99.90;;;;;;5024620;28;20586;-45
2021/08/17 08:57:57;;;;;;;4.33;1.43;;;15.50;99.90;;;;;;4999217;28;20197;-45
2021/08/17 09:00:23;;;;;;;3.37;1.50;;;15.60;99.90;;;;;;5024257;28;20320;-46
2021/08/17 09:02:51;;;;;;;2.40;1.13;;;15.60;99.90;;;;;;5015927;28;20208;-45
2021/08/17 09:05:21;;;;;;;3.37;1.90;;;15.60;99.90;;;;;;5026850;28;20246;-46
2021/08/17 09:07:48;;;;;;;3.97;1.97;;;15.60;99.90;;;;;;5020397;28;20267;-43
2021/08/17 09:10:17;;;;;;;4.63;1.87;;;15.60;99.90;;;;;;5023735;28;20266;-47
2021/08/17 09:12:45;;;;;;;3.97;1.83;;;15.60;99.90;;;;;;4997553;28;20213;-48
2021/08/17 09:15:14;;;;;;;4.20;1.40;;;15.60;99.90;;;;;;5023690;28;20551;-42
2021/08/17 09:17:42;;;;;;;5.37;1.63;;;15.60;99.90;;;;;;5016435;28;20543;-49
2021/08/17 09:20:14;;;;;;;2.87;1.20;;;15.60;99.90;;;;;;5023134;28;20212;-47
2021/08/17 09:22:42;;;;;;;2.80;1.00;;;15.60;99.90;;;;;;5020879;28;20704;-43
2021/08/17 09:25:09;;;;;;;2.93;1.00;;;15.60;99.90;;;;;;5024069;28;20876;-46
2021/08/17 09:27:38;;;;;;;1.37;0.90;;;15.40;99.90;;;;;;5013142;28;20196;-47
2021/08/17 09:30:08;;;;;;;6.10;1.30;;;15.50;99.90;;;;;;5016892;28;20220;-43
2021/08/17 09:32:48;;;;;;;4.07;1.40;;;15.40;99.90;;;;;;5017250;28;20208;-48
2021/08/17 09:35:19;;;;;;;4.33;1.03;;;15.40;99.90;;;;;;5023882;28;20215;-45
2021/08/17 09:37:45;;;;;;;2.47;1.17;;;15.40;99.90;;;;;;5019717;28;20480;-47
2021/08/17 09:40:13;;;;;;;1.27;1.17;;;15.40;99.90;;;;;;5023291;28;20979;-46
2021/08/17 09:42:41;;;;;;;1.27;0.90;;;15.30;99.90;;;;;;5011888;28;20188;-43
2021/08/17 09:45:11;;;;;;;2.90;1.00;;;15.20;99.90;;;;;;5023132;28;20211;-45
2021/08/17 09:47:41;;;;;;;2.50;1.23;;;15.20;99.90;;;;;;5019080;28;20204;-46
2021/08/17 09:50:27;;;;;;;4.20;1.20;;;15.10;99.90;;;;;;5020308;28;20220;-47
2021/08/17 09:53:10;;;;;;;2.60;1.10;;;15.10;99.90;;;;;;5018552;28;20270;-43
2021/08/17 09:55:46;;;;;;;3.00;1.20;;;15.20;99.90;;;;;;5020998;28;20196;-49
2021/08/17 09:58:19;;;;;;;8.37;1.83;;;15.20;99.90;;;;;;5023028;28;20202;-45
2021/08/17 10:00:47;;;;;;;4.47;1.50;;;15.20;99.90;;;;;;4996348;28;20215;-48
2021/08/17 10:03:15;;;;;;;5.87;1.57;;;15.30;99.90;;;;;;5018699;28;20216;-44
2021/08/17 10:05:42;;;;;;;4.83;1.70;;;15.40;99.90;;;;;;5019957;28;20196;-44
2021/08/17 10:08:11;;;;;;;4.03;2.00;;;15.50;99.90;;;;;;5026452;28;20199;-45
2021/08/17 10:10:37;;;;;;;8.10;1.73;;;15.50;99.90;;;;;;5023470;28;20208;-45
2021/08/17 10:13:04;;;;;;;6.90;2.47;;;15.60;99.90;;;;;;5025586;28;20191;-46
2021/08/17 10:15:33;;;;;;;7.33;2.90;;;15.70;99.90;;;;;;5003907;28;20215;-44
2021/08/17 10:18:00;;;;;;;5.30;2.67;;;15.80;99.90;;;;;;5021858;28;20187;-43
2021/08/17 10:20:28;;;;;;;8.10;2.00;;;15.90;99.90;;;;;;5017926;28;20228;-45
2021/08/17 10:22:55;;;;;;;7.33;2.47;;;15.90;99.90;;;;;;5019908;28;20263;-45
2021/08/17 10:25:23;;;;;;;6.33;2.30;;;15.80;99.90;;;;;;5023385;28;20196;-44
2021/08/17 10:27:50;;;;;;;11.37;2.10;;;15.70;99.90;;;;;;5019400;28;20275;-48
2021/08/17 10:30:20;;;;;;;6.80;2.07;;;15.60;99.90;;;;;;5024357;28;20216;-48
2021/08/17 10:32:55;;;;;;;9.07;2.27;;;15.50;99.90;;;;;;5000486;28;20208;-45
2021/08/17 10:35:53;;;;;;;8.40;2.60;;;15.30;99.90;;;;;;5023160;28;20202;-48
2021/08/17 10:38:43;;;;;;;9.10;2.40;;;15.30;99.90;;;;;;5026982;28;20199;-44
2021/08/17 10:41:10;;;;;;;7.83;2.33;;;15.30;99.90;;;;;;5029101;28;20224;-47
2021/08/17 10:44:04;;;;;;;10.43;2.63;;;15.20;99.90;;;;;;5028142;28;20267;-45
2021/08/17 10:46:49;;;;;;;11.13;2.97;;;15.20;99.90;;;;;;5024451;28;20200;-48
2021/08/17 10:49:49;;;;;;;9.33;3.27;;;15.20;99.90;;;;;;5030724;28;20216;-48
2021/08/17 10:52:34;;;;;;;5.33;2.57;;;15.20;99.90;;;;;;5009553;28;20376;-44
2021/08/17 10:55:38;;;;;;;6.37;2.70;;;15.20;99.90;;;;;;5004638;28;20185;-47
2021/08/17 10:58:09;;;;;;;5.60;2.07;;;15.20;99.90;;;;;;4964735;28;20200;-46
2021/08/17 11:01:06;;;;;;;7.10;2.73;;;15.10;99.90;;;;;;4999397;28;20244;-46
2021/08/17 11:03:54;;;;;;;9.73;2.43;;;15.00;99.90;;;;;;4998556;28;20235;-50
2021/08/17 11:06:44;;;;;;;13.63;3.10;;;15.00;99.90;;;;;;5021935;28;20661;-46
2021/08/17 11:09:13;;;;;;;9.83;2.73;;;15.00;99.90;;;;;;5026597;28;20228;-49
2021/08/17 11:11:42;;;;;;;12.10;3.33;;;14.90;99.90;;;;;;5028298;28;20191;-52
2021/08/17 11:14:12;;;;;;;9.17;2.03;;;15.00;99.90;;;;;;5025934;28;20204;-48
2021/08/17 11:16:44;;;;;;;15.43;3.03;;;14.90;99.90;;;;;;5024407;28;20210;-48
2021/08/17 11:19:11;;;;;;;6.20;2.60;;;15.00;99.90;;;;;;5011234;28;20732;-48
2021/08/17 11:21:40;;;;;;;6.27;2.50;;;15.00;99.90;;;;;;5021294;28;20230;-45
2021/08/17 11:24:18;;;;;;;9.37;2.30;;;15.00;99.90;;;;;;5025937;28;20192;-49
2021/08/17 11:26:46;;;;;;;6.43;2.90;;;15.00;99.90;;;;;;5025241;28;20275;-47
2021/08/17 11:29:24;;;;;;;6.27;2.90;;;15.00;99.90;;;;;;5029413;28;20698;-46
2021/08/17 11:31:51;;;;;;;12.33;2.60;;;14.90;99.90;;;;;;5025373;28;20180;-46
2021/08/17 11:34:20;;;;;;;8.80;2.97;;;14.90;99.90;;;;;;5029670;28;20654;-45
2021/08/17 11:36:53;;;;;;;8.07;3.03;;;14.80;99.90;;;;;;5001114;28;20200;-43
2021/08/17 11:39:23;;;;;;;7.23;2.70;;;14.90;99.90;;;;;;5025420;28;20227;-44
2021/08/17 11:41:50;;;;;;;13.47;3.17;;;14.90;99.90;;;;;;5021486;28;20223;-44
2021/08/17 11:44:17;;;;;;;15.77;3.63;;;14.90;99.90;;;;;;5025717;28;20207;-44
2021/08/17 11:46:44;;;;;;;8.63;2.90;;;14.90;99.90;;;;;;5022362;28;20212;-51
2021/08/17 11:49:26;;;;;;;9.30;2.83;;;14.90;99.90;;;;;;5025778;28;20220;-49
2021/08/17 11:52:08;;;;;;;10.40;3.20;;;15.00;99.90;;;;;;5006981;28;20203;-47
2021/08/17 11:54:46;;;;;;;12.03;3.43;;;15.00;99.90;;;;;;5023425;28;20275;-51
2021/08/17 11:57:17;;;;;;;11.23;2.77;;;15.00;99.90;;;;;;5025641;28;20709;-43
2021/08/17 11:59:46;;;;;;;8.87;3.07;;;14.90;99.90;;;;;;5021449;28;20254;-44
2021/08/17 12:02:20;;;;;;;12.03;3.37;;;14.90;99.90;;;;;;5026179;28;20192;-49
2021/08/17 12:04:49;;;;;;;15.40;3.20;;;14.90;99.90;;;;;;5026127;28;20203;-47
2021/08/17 12:07:17;;;;;;;13.53;4.63;;;14.90;99.90;;;;;;5012298;28;20210;-44
2021/08/17 12:09:45;;;;;;;12.87;3.63;;;14.80;99.90;;;;;;5021011;28;20231;-47
2021/08/17 12:12:14;;;;;;;11.87;3.67;;;14.80;99.90;;;;;;5025163;28;20188;-46
2021/08/17 12:14:42;;;;;;;13.37;3.53;;;14.70;99.90;;;;;;5022207;28;20203;-49
2021/08/17 12:17:10;;;;;;;9.67;3.90;;;14.80;99.90;;;;;;5024793;28;20285;-48
2021/08/17 12:19:45;;;;;;;8.17;3.13;;;14.80;99.90;;;;;;5022795;28;20212;-50
2021/08/17 12:22:28;;;;;;;5.73;3.23;;;14.80;99.90;;;;;;5024848;28;20211;-44
2021/08/17 12:24:56;;;;;;;10.63;3.67;;;14.80;99.90;;;;;;5002179;28;20203;-49
2021/08/17 12:27:25;;;;;;;9.47;3.40;;;14.90;99.90;;;;;;5024661;28;20649;-46
2021/08/17 12:29:52;;;;;;;9.13;3.97;;;14.90;99.90;;;;;;5020486;28;20210;-44
2021/08/17 12:32:21;;;;;;;8.53;3.07;;;14.90;99.90;;;;;;5024760;28;20199;-45
2021/08/17 12:34:50;;;;;;;9.20;4.37;;;14.90;99.90;;;;;;5021064;28;20188;-47
2021/08/17 12:37:32;;;;;;;9.20;3.13;;;14.90;99.90;;;;;;5024530;28;20188;-45
2021/08/17 12:40:01;;;;;;;8.60;3.17;;;15.00;99.90;;;;;;5004815;28;20303;-48
2021/08/17 12:42:28;;;;;;;14.90;4.33;;;14.90;99.90;;;;;;5024029;28;20811;-52
2021/08/17 12:44:56;;;;;;;8.67;3.70;;;15.00;99.90;;;;;;5021264;28;20774;-48
2021/08/17 12:47:25;;;;;;;12.80;3.57;;;14.90;99.90;;;;;;5024457;28;20188;-46
2021/08/17 12:49:54;;;;;;;10.90;4.03;;;14.90;99.90;;;;;;5019207;28;20471;-45